createdAt,value
2023-05-02T00:01:36.384Z,44.44
2023-05-02T00:04:03.040Z,44.54
2023-05-02T00:06:29.655Z,44.59
2023-05-02T00:08:56.225Z,44.57
2023-05-02T00:11:22.757Z,44.81
2023-05-02T00:13:49.376Z,44.57
2023-05-02T00:16:15.930Z,44.41
2023-05-02T00:18:42.417Z,44.53
2023-05-02T00:21:09.962Z,44.84
2023-05-02T00:23:36.494Z,44.68
2023-05-02T00:26:03.028Z,44.59
2023-05-02T00:28:29.560Z,44.66
2023-05-02T00:30:56.152Z,44.63
2023-05-02T00:33:22.695Z,44.92
2023-05-02T00:35:49.184Z,44.78
2023-05-02T00:38:15.642Z,44.71
2023-05-02T00:40:42.148Z,44.78
2023-05-02T00:43:08.588Z,44.62
2023-05-02T00:45:35.050Z,44.67
2023-05-02T00:48:01.718Z,44.70
2023-05-02T00:50:28.218Z,44.73
2023-05-02T00:52:54.737Z,44.73
2023-05-02T00:55:21.267Z,44.60
2023-05-02T00:57:47.750Z,44.78
2023-05-02T01:00:14.316Z,44.53
2023-05-02T01:02:40.958Z,44.93
2023-05-02T01:05:07.495Z,45.22
2023-05-02T01:07:34.020Z,44.96
2023-05-02T01:10:00.761Z,44.84
2023-05-02T01:12:27.574Z,44.57
2023-05-02T01:14:54.157Z,44.83
2023-05-02T01:17:20.695Z,44.64
2023-05-02T01:19:47.247Z,45.01
2023-05-02T01:22:13.736Z,44.90
2023-05-02T01:24:40.223Z,44.83
2023-05-02T01:27:06.653Z,44.87
2023-05-02T01:29:33.285Z,44.67
2023-05-02T01:31:59.827Z,44.64
2023-05-02T01:34:26.369Z,44.58
2023-05-02T01:36:52.883Z,44.85
2023-05-02T01:39:19.365Z,44.76
2023-05-02T01:41:45.897Z,44.77
2023-05-02T01:44:12.422Z,44.89
2023-05-02T01:46:38.974Z,44.93
2023-05-02T01:49:05.437Z,44.79
2023-05-02T01:51:31.976Z,44.83
2023-05-02T01:53:58.564Z,44.72
2023-05-02T01:56:25.118Z,44.94
2023-05-02T01:58:51.610Z,44.88
2023-05-02T02:01:18.175Z,45.01
2023-05-02T02:03:44.657Z,44.78
2023-05-02T02:06:11.158Z,44.61
2023-05-02T02:08:37.664Z,44.74
2023-05-02T02:11:04.190Z,44.97
2023-05-02T02:13:30.651Z,44.65
2023-05-02T02:15:57.094Z,44.81
2023-05-02T02:18:23.628Z,44.87
2023-05-02T02:20:50.140Z,45.03
2023-05-02T02:23:16.739Z,44.70
2023-05-02T02:25:43.332Z,44.62
2023-05-02T02:28:09.869Z,44.70
2023-05-02T02:30:36.308Z,44.96
2023-05-02T02:33:02.901Z,44.87
2023-05-02T02:35:29.500Z,44.79
2023-05-02T02:37:56.000Z,44.85
2023-05-02T02:40:22.538Z,44.91
2023-05-02T02:42:49.006Z,44.83
2023-05-02T02:45:15.518Z,44.84
2023-05-02T02:47:42.043Z,44.92
2023-05-02T02:50:08.597Z,44.94
2023-05-02T02:52:36.939Z,44.64
2023-05-02T02:55:03.468Z,44.89
2023-05-02T02:57:29.955Z,45.14
2023-05-02T02:59:56.439Z,44.93
2023-05-02T03:02:22.969Z,44.73
2023-05-02T03:04:49.404Z,45.01
2023-05-02T03:07:15.871Z,44.89
2023-05-02T03:09:42.360Z,44.54
2023-05-02T03:12:08.885Z,44.76
2023-05-02T03:14:35.415Z,44.71
2023-05-02T03:17:01.943Z,44.77
2023-05-02T03:19:28.921Z,44.87
2023-05-02T03:21:55.436Z,44.94
2023-05-02T03:24:21.903Z,44.97
2023-05-02T03:26:48.412Z,44.90
2023-05-02T03:29:14.963Z,44.62
2023-05-02T03:31:41.497Z,44.75
2023-05-02T03:34:07.923Z,45.08
2023-05-02T03:36:34.407Z,45.03
2023-05-02T03:39:00.968Z,44.64
2023-05-02T03:41:27.391Z,44.59
2023-05-02T03:43:56.979Z,44.77
2023-05-02T03:46:23.543Z,44.83
2023-05-02T03:48:50.010Z,44.69
2023-05-02T03:51:16.489Z,44.57
2023-05-02T03:53:43.035Z,44.45
2023-05-02T03:56:09.537Z,44.67
2023-05-02T03:58:36.057Z,44.59
2023-05-02T04:01:02.595Z,44.46
2023-05-02T04:03:30.144Z,44.71
2023-05-02T04:05:56.773Z,44.78
2023-05-02T04:08:23.285Z,44.85
2023-05-02T04:10:49.803Z,44.60
2023-05-02T04:13:16.317Z,44.82
2023-05-02T04:15:42.869Z,44.65
2023-05-02T04:18:09.476Z,44.75
2023-05-02T04:23:02.017Z,44.77
2023-05-02T04:25:28.530Z,44.71
2023-05-02T04:27:55.071Z,44.91
2023-05-02T04:30:21.616Z,44.47
2023-05-02T04:32:48.160Z,44.28
2023-05-02T04:35:14.634Z,44.39
2023-05-02T04:37:41.162Z,44.54
2023-05-02T04:40:07.612Z,44.23
2023-05-02T04:42:35.892Z,44.33
2023-05-02T04:45:02.416Z,44.53
2023-05-02T04:47:28.917Z,44.69
2023-05-02T04:49:55.447Z,44.27
2023-05-02T04:52:21.981Z,44.27
2023-05-02T04:54:48.461Z,44.34
2023-05-02T04:57:15.033Z,44.50
2023-05-02T04:59:41.499Z,44.27
2023-05-02T05:02:08.232Z,44.62
2023-05-02T05:04:35.008Z,44.39
2023-05-02T05:07:01.604Z,44.71
2023-05-02T05:09:28.199Z,44.60
2023-05-02T05:11:54.750Z,44.56
2023-05-02T05:14:21.257Z,44.30
2023-05-02T05:16:47.844Z,44.88
2023-05-02T05:19:14.474Z,44.63
2023-05-02T05:21:41.010Z,44.54
2023-05-02T05:24:07.526Z,44.76
2023-05-02T05:26:34.034Z,44.20
2023-05-02T05:29:00.475Z,44.10
2023-05-02T05:31:26.931Z,44.07
2023-05-02T05:33:53.534Z,43.76
2023-05-02T05:36:20.957Z,43.93
2023-05-02T05:38:49.354Z,43.62
2023-05-02T05:41:15.830Z,45.24
2023-05-02T05:43:42.304Z,46.82
2023-05-02T05:46:08.758Z,46.01
2023-05-02T05:48:35.286Z,45.75
2023-05-02T05:51:01.834Z,46.58
2023-05-02T05:53:28.697Z,46.98
2023-05-02T05:55:55.218Z,47.30
2023-05-02T05:58:21.690Z,47.30
2023-05-02T06:00:48.228Z,47.17
2023-05-02T06:03:14.859Z,47.48
2023-05-02T06:05:41.445Z,47.66
2023-05-02T06:08:07.935Z,47.82
2023-05-02T06:10:34.447Z,48.00
2023-05-02T06:13:00.918Z,47.99
2023-05-02T06:15:27.334Z,47.31
2023-05-02T06:17:53.840Z,47.59
2023-05-02T06:20:20.347Z,48.00
2023-05-02T06:22:46.815Z,49.27
2023-05-02T06:25:13.248Z,50.23
2023-05-02T06:27:39.763Z,50.46
2023-05-02T06:30:06.249Z,51.29
2023-05-02T06:32:32.739Z,51.45
2023-05-02T06:34:59.244Z,51.61
2023-05-02T06:37:25.788Z,51.49
2023-05-02T06:39:52.291Z,52.02
2023-05-02T06:42:18.825Z,52.25
2023-05-02T06:44:45.872Z,51.68
2023-05-02T06:47:12.728Z,51.28
2023-05-02T06:49:39.319Z,51.13
2023-05-02T06:52:05.798Z,50.96
2023-05-02T06:54:32.248Z,50.20
2023-05-02T06:56:58.955Z,50.38
2023-05-02T06:59:25.464Z,50.00
2023-05-02T07:01:51.908Z,49.57
2023-05-02T07:04:18.366Z,49.51
2023-05-02T07:06:44.980Z,49.89
2023-05-02T07:09:11.551Z,49.92
2023-05-02T07:11:38.085Z,49.44
2023-05-02T07:14:04.591Z,49.50
2023-05-02T07:16:31.196Z,49.32
2023-05-02T07:18:57.731Z,49.17
2023-05-02T07:21:24.275Z,49.11
2023-05-02T07:23:50.787Z,49.13
2023-05-02T07:26:17.253Z,49.09
2023-05-02T07:28:43.713Z,48.96
2023-05-02T07:31:10.173Z,48.75
2023-05-02T07:33:36.690Z,48.33
2023-05-02T07:36:03.164Z,47.96
2023-05-02T07:38:29.601Z,47.94
2023-05-02T07:40:56.064Z,47.54
2023-05-02T07:43:22.518Z,48.17
2023-05-02T07:45:48.947Z,48.40
2023-05-02T07:48:15.525Z,48.92
2023-05-02T07:50:42.119Z,48.98
2023-05-02T07:53:08.596Z,48.30
2023-05-02T07:55:36.316Z,48.48
2023-05-02T07:58:02.782Z,48.58
2023-05-02T08:00:29.260Z,48.36
2023-05-02T08:02:55.757Z,48.87
2023-05-02T08:05:22.367Z,48.23
2023-05-02T08:07:48.847Z,47.97
2023-05-02T08:10:15.372Z,47.25
2023-05-02T08:12:41.853Z,47.10
2023-05-02T08:15:08.375Z,47.93
2023-05-02T08:17:34.932Z,47.51
2023-05-02T08:20:04.197Z,47.59
2023-05-02T08:22:30.652Z,47.66
2023-05-02T08:24:57.113Z,47.82
2023-05-02T08:27:23.630Z,47.77
2023-05-02T08:29:50.155Z,47.90
2023-05-02T08:32:16.900Z,47.98
2023-05-02T08:34:43.413Z,47.95
2023-05-02T08:37:09.908Z,47.77
2023-05-02T08:39:36.407Z,47.86
2023-05-02T08:42:02.874Z,47.82
2023-05-02T08:44:29.316Z,47.41
2023-05-02T08:46:55.822Z,47.42
2023-05-02T08:49:22.477Z,47.52
2023-05-02T08:51:49.008Z,47.64
2023-05-02T08:54:15.453Z,47.38
2023-05-02T08:56:41.886Z,47.44
2023-05-02T08:59:08.338Z,47.26
2023-05-02T09:01:34.984Z,47.04
2023-05-02T09:04:01.612Z,47.16
2023-05-02T09:06:28.180Z,46.80
2023-05-02T09:08:54.751Z,46.09
2023-05-02T09:11:21.309Z,45.96
2023-05-02T09:13:47.785Z,45.46
2023-05-02T09:16:14.323Z,45.32
2023-05-02T09:18:40.772Z,45.19
2023-05-02T09:21:07.320Z,45.29
2023-05-02T09:23:33.815Z,45.49
2023-05-02T09:26:00.335Z,45.24
2023-05-02T09:28:26.818Z,45.82
2023-05-02T09:30:53.378Z,45.67
2023-05-02T09:33:19.841Z,45.78
2023-05-02T09:35:46.325Z,45.60
2023-05-02T09:38:12.761Z,45.67
2023-05-02T09:40:39.177Z,45.83
2023-05-02T09:43:05.667Z,45.55
2023-05-02T09:45:32.212Z,45.58
2023-05-02T09:47:58.719Z,45.80
2023-05-02T09:50:25.219Z,45.76
2023-05-02T09:52:51.717Z,45.52
2023-05-02T09:55:18.228Z,45.91
2023-05-02T09:57:44.715Z,45.94
2023-05-02T10:00:11.476Z,45.82
2023-05-02T10:02:38.137Z,45.76
2023-05-02T10:05:04.652Z,45.92
2023-05-02T10:07:31.086Z,45.05
2023-05-02T10:09:57.635Z,45.28
2023-05-02T10:12:24.120Z,45.59
2023-05-02T10:14:50.684Z,45.56
2023-05-02T10:17:17.268Z,46.61
2023-05-02T10:19:43.856Z,47.35
2023-05-02T10:22:10.406Z,48.33
2023-05-02T10:24:36.943Z,49.68
2023-05-02T10:27:03.517Z,49.87
2023-05-02T10:29:30.013Z,49.66
2023-05-02T10:31:56.606Z,49.70
2023-05-02T10:34:23.192Z,49.76
2023-05-02T10:36:49.791Z,49.75
2023-05-02T10:39:16.316Z,49.48
2023-05-02T10:41:42.843Z,49.65
2023-05-02T10:44:09.344Z,49.31
2023-05-02T10:46:35.962Z,49.33
2023-05-02T10:49:02.668Z,48.36
2023-05-02T10:51:29.226Z,48.19
2023-05-02T10:53:55.843Z,48.08
2023-05-02T10:56:22.292Z,47.83
2023-05-02T10:58:48.801Z,47.21
2023-05-02T11:01:15.365Z,47.11
2023-05-02T11:03:41.911Z,46.53
2023-05-02T11:06:08.535Z,46.00
2023-05-02T11:08:35.145Z,45.78
2023-05-02T11:11:01.702Z,45.63
2023-05-02T11:13:28.193Z,45.31
2023-05-02T11:15:54.799Z,44.86
2023-05-02T11:18:21.265Z,45.28
2023-05-02T11:20:47.785Z,44.66
2023-05-02T11:23:14.333Z,44.47
2023-05-02T11:25:40.884Z,44.84
2023-05-02T11:28:07.391Z,44.80
2023-05-02T11:30:33.890Z,45.78
2023-05-02T11:33:00.380Z,47.12
2023-05-02T11:35:26.935Z,46.87
2023-05-02T11:37:53.468Z,47.15
2023-05-02T11:40:20.128Z,46.54
2023-05-02T11:42:46.625Z,46.78
2023-05-02T11:45:13.043Z,46.33
2023-05-02T11:47:39.512Z,46.20
2023-05-02T11:50:06.085Z,46.07
2023-05-02T11:52:32.554Z,46.63
2023-05-02T11:54:59.314Z,46.41
2023-05-02T11:57:26.067Z,46.30
2023-05-02T11:59:52.501Z,46.11
2023-05-02T12:02:19.046Z,46.32
2023-05-02T12:04:45.624Z,46.09
2023-05-02T12:07:12.414Z,45.77
2023-05-02T12:09:41.883Z,45.95
2023-05-02T12:12:08.574Z,46.01
2023-05-02T12:14:35.058Z,45.97
2023-05-02T12:17:01.616Z,45.67
2023-05-02T12:19:28.219Z,45.72
2023-05-02T12:21:54.764Z,45.77
2023-05-02T12:24:21.345Z,45.78
2023-05-02T12:26:47.936Z,45.59
2023-05-02T12:29:14.488Z,45.92
2023-05-02T12:31:41.055Z,45.85
2023-05-02T12:34:07.569Z,45.81
2023-05-02T12:36:34.099Z,45.80
2023-05-02T12:39:00.625Z,45.66
2023-05-02T12:41:27.112Z,45.29
2023-05-02T12:43:53.640Z,45.06
2023-05-02T12:46:20.388Z,45.03
2023-05-02T12:48:46.971Z,45.12
2023-05-02T12:51:13.466Z,45.13
2023-05-02T12:53:39.879Z,45.08
2023-05-02T12:56:06.384Z,44.73
2023-05-02T12:58:32.899Z,44.89
2023-05-02T13:00:59.507Z,44.54
2023-05-02T13:03:26.088Z,44.57
2023-05-02T13:05:52.725Z,45.09
2023-05-02T13:08:19.312Z,44.64
2023-05-02T13:10:45.899Z,44.58
2023-05-02T13:13:12.539Z,44.41
2023-05-02T13:15:39.055Z,44.15
2023-05-02T13:18:05.643Z,43.98
2023-05-02T13:20:32.304Z,44.06
2023-05-02T13:22:58.790Z,43.73
2023-05-02T13:25:25.300Z,43.79
2023-05-02T13:27:51.848Z,43.75
2023-05-02T13:30:18.417Z,43.63
2023-05-02T13:32:45.063Z,43.40
2023-05-02T13:35:11.589Z,43.47
2023-05-02T13:37:38.076Z,43.64
2023-05-02T13:40:04.801Z,43.65
2023-05-02T13:42:31.498Z,43.55
2023-05-02T13:44:58.023Z,43.29
2023-05-02T13:47:24.643Z,43.14
2023-05-02T13:49:51.213Z,42.91
2023-05-02T13:52:17.698Z,43.05
2023-05-02T13:54:44.171Z,42.71
2023-05-02T13:57:10.681Z,42.89
2023-05-02T13:59:37.238Z,42.93
2023-05-02T14:02:03.837Z,42.86
2023-05-02T14:04:30.401Z,42.70
2023-05-02T14:06:57.060Z,42.74
2023-05-02T14:09:23.697Z,42.89
2023-05-02T14:11:50.381Z,42.83
2023-05-02T14:14:16.899Z,42.60
2023-05-02T14:16:43.379Z,42.81
2023-05-02T14:19:09.864Z,42.56
2023-05-02T14:21:36.375Z,42.74
2023-05-02T14:24:02.797Z,42.42
2023-05-02T14:26:29.273Z,42.34
2023-05-02T14:28:55.781Z,42.13
2023-05-02T14:31:22.321Z,41.85
2023-05-02T14:33:48.885Z,41.91
2023-05-02T14:36:15.387Z,42.09
2023-05-02T14:38:41.817Z,42.42
2023-05-02T14:41:08.329Z,42.44
2023-05-02T14:43:34.773Z,42.46
2023-05-02T14:46:01.304Z,41.59
2023-05-02T14:48:27.828Z,40.83
2023-05-02T14:50:54.357Z,40.71
2023-05-02T14:53:21.012Z,40.51
2023-05-02T14:55:47.462Z,39.87
2023-05-02T14:58:13.913Z,39.61
2023-05-02T15:00:40.440Z,34.55
2023-05-02T15:03:08.084Z,28.20
2023-05-02T15:05:34.877Z,26.06
2023-05-02T15:08:01.611Z,24.56
2023-05-02T15:10:28.066Z,23.60
2023-05-02T15:12:54.499Z,23.07
2023-05-02T15:15:20.929Z,22.81
2023-05-02T15:17:47.385Z,22.44
2023-05-02T15:20:13.841Z,22.24
2023-05-02T15:22:40.226Z,22.26
2023-05-02T15:25:06.747Z,22.21
2023-05-02T15:27:34.522Z,22.10
2023-05-02T15:30:01.389Z,22.01
2023-05-02T15:32:28.171Z,22.14
2023-05-02T15:34:54.651Z,22.24
2023-05-02T15:37:21.047Z,21.90
2023-05-02T15:39:47.516Z,22.17
2023-05-02T15:42:14.083Z,22.06
2023-05-02T15:44:40.633Z,21.50
2023-05-02T15:47:07.115Z,21.14
2023-05-02T15:49:34.565Z,21.36
2023-05-02T15:52:01.485Z,21.06
2023-05-02T15:54:27.960Z,21.29
2023-05-02T15:56:54.432Z,21.60
2023-05-02T15:59:21.823Z,21.61
2023-05-02T16:01:48.463Z,21.42
2023-05-02T16:04:14.981Z,21.35
2023-05-02T16:06:41.636Z,21.66
2023-05-02T16:09:08.275Z,21.51
2023-05-02T16:11:34.811Z,21.42
2023-05-02T16:14:01.288Z,21.55
2023-05-02T16:16:27.890Z,21.55
2023-05-02T16:18:54.446Z,21.42
2023-05-02T16:21:21.061Z,21.58
2023-05-02T16:23:47.716Z,21.64
2023-05-02T16:26:14.343Z,21.86
2023-05-02T16:28:40.795Z,21.59
2023-05-02T16:31:07.281Z,22.11
2023-05-02T16:33:33.754Z,21.93
2023-05-02T16:36:00.285Z,22.28
2023-05-02T16:38:26.800Z,23.41
2023-05-02T16:40:53.298Z,28.01
2023-05-02T16:43:19.761Z,27.78
2023-05-02T16:45:46.681Z,29.82
2023-05-02T16:48:13.230Z,30.88
2023-05-02T16:50:40.505Z,33.13
2023-05-02T16:53:07.173Z,33.99
2023-05-02T16:55:33.762Z,34.71
2023-05-02T16:58:00.264Z,35.89
2023-05-02T17:00:26.786Z,36.48
2023-05-02T17:02:53.403Z,37.34
2023-05-02T17:05:20.428Z,37.44
2023-05-02T17:07:46.900Z,37.61
2023-05-02T17:10:13.427Z,38.21
2023-05-02T17:12:40.019Z,38.16
2023-05-02T17:15:06.506Z,38.04
2023-05-02T17:17:33.682Z,37.78
2023-05-02T17:20:00.717Z,36.64
2023-05-02T17:22:27.398Z,35.69
2023-05-02T17:24:54.074Z,36.28
2023-05-02T17:27:20.672Z,36.96
2023-05-02T17:29:50.214Z,37.76
2023-05-02T17:32:16.770Z,38.24
2023-05-02T17:34:43.310Z,38.91
2023-05-02T17:37:09.773Z,38.38
2023-05-02T17:39:36.211Z,38.21
2023-05-02T17:42:02.711Z,39.35
2023-05-02T17:44:29.235Z,38.73
2023-05-02T17:46:55.752Z,38.29
2023-05-02T17:49:22.199Z,38.36
2023-05-02T17:51:48.676Z,37.58
2023-05-02T17:54:15.107Z,36.64
2023-05-02T17:56:41.516Z,37.89
2023-05-02T17:59:08.007Z,36.51
2023-05-02T18:01:34.462Z,35.47
2023-05-02T18:04:01.094Z,34.67
2023-05-02T18:06:27.980Z,34.56
2023-05-02T18:08:54.576Z,36.39
2023-05-02T18:11:21.004Z,36.99
2023-05-02T18:13:47.457Z,37.14
2023-05-02T18:16:14.240Z,37.73
2023-05-02T18:18:40.994Z,37.88
2023-05-02T18:21:07.515Z,37.96
2023-05-02T18:23:34.000Z,38.17
2023-05-02T18:26:00.519Z,38.35
2023-05-02T18:28:27.132Z,38.66
2023-05-02T18:30:53.664Z,38.86
2023-05-02T18:33:20.134Z,39.27
2023-05-02T18:35:46.617Z,39.67
2023-05-02T18:38:13.106Z,39.96
2023-05-02T18:40:39.666Z,40.13
2023-05-02T18:43:06.196Z,40.13
2023-05-02T18:45:32.711Z,40.11
2023-05-02T18:47:59.288Z,40.14
2023-05-02T18:50:25.747Z,40.13
2023-05-02T18:52:52.162Z,40.58
2023-05-02T18:55:18.630Z,40.55
2023-05-02T18:57:45.044Z,40.77
2023-05-02T19:00:11.481Z,40.61
2023-05-02T19:02:38.071Z,40.95
2023-05-02T19:05:04.740Z,40.83
2023-05-02T19:07:31.475Z,40.53
2023-05-02T19:09:57.953Z,40.99
2023-05-02T19:12:24.380Z,41.26
2023-05-02T19:14:50.995Z,41.38
2023-05-02T19:17:17.475Z,41.31
2023-05-02T19:19:44.025Z,41.65
2023-05-02T19:22:10.506Z,41.45
2023-05-02T19:24:36.973Z,41.88
2023-05-02T19:27:03.409Z,41.96
2023-05-02T19:29:29.854Z,42.22
2023-05-02T19:31:56.434Z,42.23
2023-05-02T19:34:23.038Z,41.91
2023-05-02T19:36:49.501Z,42.12
2023-05-02T19:39:16.011Z,42.23
2023-05-02T19:41:42.578Z,42.05
2023-05-02T19:44:10.148Z,42.45
2023-05-02T19:46:36.737Z,42.70
2023-05-02T19:49:03.269Z,42.77
2023-05-02T19:51:29.872Z,42.72
2023-05-02T19:53:56.276Z,42.58
2023-05-02T19:56:22.781Z,42.62
2023-05-02T19:58:49.404Z,42.61
2023-05-02T20:01:16.065Z,42.91
2023-05-02T20:03:42.795Z,42.83
2023-05-02T20:06:09.415Z,42.96
2023-05-02T20:08:36.713Z,42.63
2023-05-02T20:11:04.249Z,42.77
2023-05-02T20:13:30.946Z,43.08
2023-05-02T20:15:57.378Z,42.91
2023-05-02T20:18:23.817Z,42.97
2023-05-02T20:20:50.286Z,43.10
2023-05-02T20:23:17.405Z,43.54
2023-05-02T20:25:43.949Z,43.15
2023-05-02T20:28:10.489Z,43.14
2023-05-02T20:30:36.935Z,43.29
2023-05-02T20:33:14.050Z,43.11
2023-05-02T20:35:42.420Z,43.63
2023-05-02T20:38:08.926Z,43.06
2023-05-02T20:40:35.448Z,43.24
2023-05-02T20:43:01.988Z,43.66
2023-05-02T20:45:28.511Z,43.51
2023-05-02T20:47:54.990Z,43.26
2023-05-02T20:50:21.665Z,43.68
2023-05-02T20:52:48.243Z,43.84
2023-05-02T20:55:14.780Z,43.59
2023-05-02T20:57:41.320Z,43.81
2023-05-02T21:00:07.815Z,43.49
2023-05-02T21:02:34.391Z,43.68
2023-05-02T21:05:00.958Z,43.88
2023-05-02T21:07:27.353Z,43.52
2023-05-02T21:09:53.946Z,43.52
2023-05-02T21:12:20.485Z,43.90
2023-05-02T21:14:47.046Z,43.86
2023-05-02T21:17:13.589Z,43.65
2023-05-02T21:19:40.193Z,43.70
2023-05-02T21:22:06.759Z,43.98
2023-05-02T21:24:33.297Z,43.54
2023-05-02T21:26:59.805Z,43.75
2023-05-02T21:29:26.287Z,43.93
2023-05-02T21:31:54.674Z,43.98
2023-05-02T21:34:21.598Z,44.15
2023-05-02T21:36:48.206Z,43.97
2023-05-02T21:39:14.786Z,43.97
2023-05-02T21:41:41.312Z,43.95
2023-05-02T21:44:07.835Z,44.08
2023-05-02T21:46:34.417Z,44.00
2023-05-02T21:49:00.916Z,44.12
2023-05-02T21:51:27.336Z,43.92
2023-05-02T21:53:53.873Z,43.82
2023-05-02T21:56:20.429Z,44.00
2023-05-02T21:58:46.908Z,44.06
2023-05-02T22:01:13.490Z,44.05
2023-05-02T22:03:40.053Z,43.99
2023-05-02T22:06:07.026Z,44.13
2023-05-02T22:08:33.648Z,44.02
2023-05-02T22:11:00.198Z,43.99
2023-05-02T22:13:26.716Z,44.18
2023-05-02T22:15:53.274Z,44.19
2023-05-02T22:18:19.758Z,44.42
2023-05-02T22:20:46.249Z,44.17
2023-05-02T22:23:12.768Z,44.09
2023-05-02T22:25:39.288Z,44.02
2023-05-02T22:28:05.919Z,44.42
2023-05-02T22:30:32.443Z,44.15
2023-05-02T22:32:59.049Z,44.08
2023-05-02T22:35:25.728Z,44.56
2023-05-02T22:37:52.302Z,44.22
2023-05-02T22:40:18.892Z,44.25
2023-05-02T22:42:45.495Z,44.43
2023-05-02T22:45:12.027Z,44.40
2023-05-02T22:47:38.605Z,44.20
2023-05-02T22:50:05.484Z,44.21
2023-05-02T22:52:32.218Z,44.34
2023-05-02T22:54:58.643Z,44.59
2023-05-02T22:57:25.173Z,44.28
2023-05-02T22:59:51.590Z,44.10
2023-05-02T23:02:18.241Z,44.36
2023-05-02T23:04:44.781Z,44.26
2023-05-02T23:07:11.258Z,44.05
2023-05-02T23:09:37.711Z,44.37
2023-05-02T23:12:04.208Z,44.39
2023-05-02T23:14:30.787Z,44.40
2023-05-02T23:16:57.305Z,44.30
2023-05-02T23:19:23.827Z,44.33
2023-05-02T23:21:50.321Z,44.65
2023-05-02T23:24:16.851Z,44.49
2023-05-02T23:26:43.397Z,44.26
2023-05-02T23:29:09.971Z,44.48
2023-05-02T23:31:36.612Z,44.64
2023-05-02T23:34:03.284Z,44.10
2023-05-02T23:36:29.827Z,44.52
2023-05-02T23:38:56.244Z,44.28
2023-05-02T23:41:22.791Z,44.41
2023-05-02T23:43:49.272Z,44.70
2023-05-02T23:46:15.914Z,44.57
2023-05-02T23:48:42.435Z,44.20
2023-05-02T23:51:08.976Z,44.37
2023-05-02T23:53:36.451Z,44.36
2023-05-02T23:56:02.932Z,44.30
2023-05-02T23:58:29.424Z,44.18
